createdAt,value
2019-05-25T00:00:53.584Z,16
2019-05-25T00:02:05.781Z,15.9
2019-05-25T00:03:17.982Z,15.9
2019-05-25T00:04:30.178Z,15.9
2019-05-25T00:05:42.371Z,15.9
2019-05-25T00:06:54.752Z,15.9
2019-05-25T00:08:06.831Z,15.9
2019-05-25T00:09:19.475Z,15.9
2019-05-25T00:10:31.241Z,15.9
2019-05-25T00:11:43.440Z,15.8
2019-05-25T00:12:55.539Z,15.8
2019-05-25T00:14:07.725Z,15.8
2019-05-25T00:15:19.995Z,15.8
2019-05-25T00:16:32.190Z,15.7
2019-05-25T00:17:44.408Z,15.7
2019-05-25T00:18:56.675Z,15.7
2019-05-25T00:20:08.691Z,15.7
2019-05-25T00:21:21.000Z,15.6
2019-05-25T00:22:33.092Z,15.6
2019-05-25T00:23:45.289Z,15.6
2019-05-25T00:25:00.051Z,15.6
2019-05-25T00:26:09.789Z,15.6
2019-05-25T00:27:21.869Z,15.6
2019-05-25T00:28:34.097Z,15.5
2019-05-25T00:29:46.343Z,15.5
2019-05-25T00:30:58.538Z,15.5
2019-05-25T00:32:10.653Z,15.5
2019-05-25T00:33:22.839Z,15.5
2019-05-25T00:34:35.520Z,15.5
2019-05-25T00:35:47.344Z,15.5
2019-05-25T00:36:59.527Z,15.5
2019-05-25T00:38:11.704Z,15.5
2019-05-25T00:39:23.902Z,15.5
2019-05-25T00:40:36.057Z,15.4
2019-05-25T00:41:48.284Z,15.4
2019-05-25T00:43:00.505Z,15.4
2019-05-25T00:44:12.593Z,15.4
2019-05-25T00:45:24.789Z,15.3
2019-05-25T00:46:37.112Z,15.3
2019-05-25T00:47:49.281Z,15.3
2019-05-25T00:49:01.388Z,15.3
2019-05-25T00:50:13.653Z,15.3
2019-05-25T00:51:25.894Z,15.3
2019-05-25T00:52:38.056Z,15.2
2019-05-25T00:53:55.293Z,15.2
2019-05-25T00:55:02.513Z,15.2
2019-05-25T00:56:14.563Z,15.2
2019-05-25T00:57:26.737Z,15.2
2019-05-25T00:58:39.035Z,15.2
2019-05-25T00:59:51.177Z,15.2
2019-05-25T01:01:03.352Z,15.2
2019-05-25T01:02:15.598Z,15.2
2019-05-25T01:03:27.726Z,15.2
2019-05-25T01:04:39.923Z,15.1
2019-05-25T01:05:52.119Z,15.1
2019-05-25T01:07:04.407Z,15.1
2019-05-25T01:08:16.586Z,15.1
2019-05-25T01:09:28.688Z,15.1
2019-05-25T01:10:40.895Z,15
2019-05-25T01:11:53.173Z,15
2019-05-25T01:13:05.272Z,15
2019-05-25T01:14:17.471Z,15
2019-05-25T01:15:29.673Z,15
2019-05-25T01:16:41.864Z,15
2019-05-25T01:17:54.088Z,14.9
2019-05-25T01:19:06.420Z,14.9
2019-05-25T01:20:18.451Z,14.9
2019-05-25T01:21:30.657Z,14.9
2019-05-25T01:22:42.841Z,14.9
2019-05-25T01:23:55.035Z,14.9
2019-05-25T01:25:07.302Z,14.9
2019-05-25T01:26:19.427Z,14.9
2019-05-25T01:27:31.723Z,14.8
2019-05-25T01:28:43.815Z,14.8
2019-05-25T01:29:56.006Z,14.8
2019-05-25T01:31:08.306Z,14.8
2019-05-25T01:32:20.592Z,14.8
2019-05-25T01:33:32.617Z,14.8
2019-05-25T01:34:44.884Z,14.8
2019-05-25T01:35:56.993Z,14.8
2019-05-25T01:37:09.251Z,14.7
2019-05-25T01:38:21.463Z,14.7
2019-05-25T01:39:33.601Z,14.7
2019-05-25T01:40:45.769Z,14.7
2019-05-25T01:41:57.967Z,14.7
2019-05-25T01:43:10.343Z,14.7
2019-05-25T01:44:22.380Z,14.7
2019-05-25T01:45:34.587Z,14.7
2019-05-25T01:46:46.771Z,14.7
2019-05-25T01:47:58.933Z,14.7
2019-05-25T01:49:11.230Z,14.6
2019-05-25T01:50:23.463Z,14.6
2019-05-25T01:51:35.526Z,14.6
2019-05-25T01:52:47.716Z,14.6
2019-05-25T01:53:59.997Z,14.6
2019-05-25T01:55:12.199Z,14.6
2019-05-25T01:56:24.423Z,14.6
2019-05-25T01:57:36.520Z,14.6
2019-05-25T01:58:48.965Z,14.5
2019-05-25T02:00:02.333Z,14.5
2019-05-25T02:01:13.083Z,14.5
2019-05-25T02:02:25.279Z,14.5
2019-05-25T02:03:38.436Z,14.5
2019-05-25T02:04:51.137Z,14.5
2019-05-25T02:06:01.962Z,14.5
2019-05-25T02:07:14.213Z,14.5
2019-05-25T02:08:26.255Z,14.5
2019-05-25T02:09:38.545Z,14.5
2019-05-25T02:10:50.657Z,14.4
2019-05-25T02:12:02.839Z,14.4
2019-05-25T02:13:15.041Z,14.4
2019-05-25T02:14:27.325Z,14.4
2019-05-25T02:15:39.616Z,14.4
2019-05-25T02:16:51.624Z,14.4
2019-05-25T02:18:03.916Z,14.4
2019-05-25T02:19:16.190Z,14.4
2019-05-25T02:20:28.220Z,14.3
2019-05-25T02:21:40.427Z,14.3
2019-05-25T02:22:52.635Z,14.3
2019-05-25T02:24:04.838Z,14.3
2019-05-25T02:25:17.123Z,14.3
2019-05-25T02:26:29.269Z,14.3
2019-05-25T02:27:41.457Z,14.3
2019-05-25T02:28:53.611Z,14.3
2019-05-25T02:30:05.784Z,14.2
2019-05-25T02:31:18.055Z,14.2
2019-05-25T02:32:30.165Z,14.2
2019-05-25T02:33:42.405Z,14.2
2019-05-25T02:34:54.557Z,14.2
2019-05-25T02:36:06.854Z,14.2
2019-05-25T02:37:18.984Z,14.1
2019-05-25T02:38:31.141Z,14.1
2019-05-25T02:39:43.360Z,14.1
2019-05-25T02:40:55.533Z,14.1
2019-05-25T02:42:07.820Z,14.1
2019-05-25T02:43:19.919Z,14.1
2019-05-25T02:44:32.163Z,14.1
2019-05-25T02:45:44.316Z,14
2019-05-25T02:46:56.514Z,14
2019-05-25T02:48:08.697Z,14
2019-05-25T02:49:21.064Z,14
2019-05-25T02:50:34.326Z,14
2019-05-25T02:51:45.299Z,14
2019-05-25T02:52:57.564Z,14
2019-05-25T02:54:09.701Z,13.9
2019-05-25T02:55:22.061Z,13.9
2019-05-25T02:56:34.178Z,13.9
2019-05-25T02:57:46.356Z,13.9
2019-05-25T02:58:58.541Z,13.9
2019-05-25T03:00:10.739Z,13.9
2019-05-25T03:01:22.960Z,13.8
2019-05-25T03:02:35.141Z,13.8
2019-05-25T03:03:47.239Z,13.8
2019-05-25T03:04:59.447Z,13.8
2019-05-25T03:06:12.784Z,13.8
2019-05-25T03:07:24.004Z,13.8
2019-05-25T03:08:36.179Z,13.8
2019-05-25T03:09:48.231Z,13.7
2019-05-25T03:11:00.399Z,13.7
2019-05-25T03:12:12.600Z,13.7
2019-05-25T03:13:24.992Z,13.7
2019-05-25T03:14:36.978Z,13.7
2019-05-25T03:15:49.308Z,13.7
2019-05-25T03:17:01.472Z,13.7
2019-05-25T03:18:13.638Z,13.7
2019-05-25T03:19:25.850Z,13.7
2019-05-25T03:20:38.909Z,13.6
2019-05-25T03:21:50.145Z,13.6
2019-05-25T03:23:02.446Z,13.6
2019-05-25T03:24:14.551Z,13.6
2019-05-25T03:25:28.349Z,13.6
2019-05-25T03:26:38.925Z,13.6
2019-05-25T03:27:51.166Z,13.5
2019-05-25T03:29:03.425Z,13.5
2019-05-25T03:30:15.519Z,13.5
2019-05-25T03:31:27.787Z,13.5
2019-05-25T03:32:39.989Z,13.5
2019-05-25T03:33:52.856Z,13.5
2019-05-25T03:35:04.287Z,13.5
2019-05-25T03:36:16.552Z,13.5
2019-05-25T03:37:28.725Z,13.5
2019-05-25T03:38:40.897Z,13.5
2019-05-25T03:39:53.079Z,13.5
2019-05-25T03:41:05.251Z,13.4
2019-05-25T03:42:17.435Z,13.4
2019-05-25T03:43:29.724Z,13.4
2019-05-25T03:44:41.929Z,13.4
2019-05-25T03:45:54.032Z,13.4
2019-05-25T03:47:06.215Z,13.4
2019-05-25T03:48:20.503Z,13.4
2019-05-25T03:49:30.600Z,13.4
2019-05-25T03:50:42.789Z,13.3
2019-05-25T03:51:54.988Z,13.3
2019-05-25T03:53:07.333Z,13.3
2019-05-25T03:54:19.375Z,13.3
2019-05-25T03:55:31.667Z,13.3
2019-05-25T03:56:43.865Z,13.3
2019-05-25T03:57:55.962Z,13.3
2019-05-25T03:59:08.160Z,13.3
2019-05-25T04:00:20.354Z,13.3
2019-05-25T04:01:32.546Z,13.3
2019-05-25T04:02:44.788Z,13.3
2019-05-25T04:03:57.044Z,13.3
2019-05-25T04:05:09.129Z,13.2
2019-05-25T04:06:21.317Z,13.2
2019-05-25T04:07:33.620Z,13.2
2019-05-25T04:08:45.802Z,13.2
2019-05-25T04:09:57.991Z,13.2
2019-05-25T04:11:10.103Z,13.2
2019-05-25T04:12:22.317Z,13.2
2019-05-25T04:13:34.578Z,13.2
2019-05-25T04:14:46.696Z,13.1
2019-05-25T04:15:58.966Z,13.1
2019-05-25T04:17:11.074Z,13.1
2019-05-25T04:18:23.267Z,13.1
2019-05-25T04:19:35.621Z,13.1
2019-05-25T04:20:47.644Z,13.1
2019-05-25T04:21:59.853Z,13.1
2019-05-25T04:23:12.043Z,13.1
2019-05-25T04:24:24.318Z,13.1
2019-05-25T04:25:36.423Z,13.1
2019-05-25T04:26:48.615Z,13.1
2019-05-25T04:28:00.815Z,13.1
2019-05-25T04:29:13.009Z,13.1
2019-05-25T04:30:25.276Z,13.1
2019-05-25T04:31:37.581Z,13.1
2019-05-25T04:32:49.624Z,13.1
2019-05-25T04:34:01.779Z,13.1
2019-05-25T04:35:14.065Z,13.1
2019-05-25T04:36:26.247Z,13.1
2019-05-25T04:37:38.453Z,13
2019-05-25T04:38:50.684Z,13.1
2019-05-25T04:40:02.837Z,13.1
2019-05-25T04:41:15.045Z,13.1
2019-05-25T04:42:27.133Z,13
2019-05-25T04:43:39.436Z,13
2019-05-25T04:44:51.617Z,13
2019-05-25T04:46:03.718Z,13
2019-05-25T04:47:15.933Z,13
2019-05-25T04:48:28.115Z,13
2019-05-25T04:49:40.460Z,13
2019-05-25T04:50:52.529Z,13
2019-05-25T04:52:04.770Z,13
2019-05-25T04:53:16.879Z,13
2019-05-25T04:54:29.085Z,13
2019-05-25T04:55:41.356Z,13
2019-05-25T04:56:53.547Z,13
2019-05-25T04:58:05.745Z,13
2019-05-25T04:59:18.043Z,13
2019-05-25T05:00:30.045Z,13
2019-05-25T05:01:42.235Z,12.9
2019-05-25T05:02:54.538Z,13
2019-05-25T05:04:06.651Z,13
2019-05-25T05:05:18.934Z,13
2019-05-25T05:06:31.140Z,13
2019-05-25T05:07:43.301Z,13
2019-05-25T05:08:55.603Z,13
2019-05-25T05:10:07.607Z,13
2019-05-25T05:11:19.878Z,13
2019-05-25T05:12:32.003Z,13
2019-05-25T05:13:44.281Z,13
2019-05-25T05:14:56.431Z,13
2019-05-25T05:16:08.749Z,13
2019-05-25T05:17:20.763Z,13
2019-05-25T05:18:33.048Z,13.1
2019-05-25T05:19:45.235Z,13.1
2019-05-25T05:20:57.516Z,13.1
2019-05-25T05:22:09.532Z,13.1
2019-05-25T05:23:21.741Z,13.1
2019-05-25T05:24:33.929Z,13.1
2019-05-25T05:25:46.217Z,13.1
2019-05-25T05:26:58.306Z,13.2
2019-05-25T05:28:10.622Z,13.2
2019-05-25T05:29:22.745Z,13.2
2019-05-25T05:30:34.961Z,13.2
2019-05-25T05:31:47.222Z,13.3
2019-05-25T05:32:59.273Z,13.3
2019-05-25T05:34:11.529Z,13.3
2019-05-25T05:35:23.745Z,13.3
2019-05-25T05:36:35.871Z,13.3
2019-05-25T05:37:48.143Z,13.3
2019-05-25T05:39:00.367Z,13.3
2019-05-25T05:40:12.631Z,13.3
2019-05-25T05:41:24.638Z,13.4
2019-05-25T05:42:36.925Z,13.4
2019-05-25T05:43:49.134Z,13.4
2019-05-25T05:45:01.313Z,13.4
2019-05-25T05:46:13.414Z,13.4
2019-05-25T05:47:25.608Z,13.5
2019-05-25T05:48:37.815Z,13.5
2019-05-25T05:49:50.155Z,13.5
2019-05-25T05:51:02.194Z,13.5
2019-05-25T05:52:14.458Z,13.5
2019-05-25T05:53:26.568Z,13.5
2019-05-25T05:54:38.784Z,13.6
2019-05-25T05:55:51.230Z,13.6
2019-05-25T05:57:03.321Z,13.6
2019-05-25T05:58:15.428Z,13.6
2019-05-25T05:59:27.540Z,13.7
2019-05-25T06:00:39.815Z,13.7
2019-05-25T06:01:51.920Z,13.7
2019-05-25T06:03:06.643Z,13.8
2019-05-25T06:04:16.392Z,13.8
2019-05-25T06:05:28.607Z,13.9
2019-05-25T06:06:40.709Z,13.9
2019-05-25T06:07:53.074Z,13.9
2019-05-25T06:09:05.118Z,14
2019-05-25T06:10:17.281Z,14
2019-05-25T06:11:29.566Z,14
2019-05-25T06:12:41.672Z,14.1
2019-05-25T06:13:53.944Z,14.1
2019-05-25T06:15:06.219Z,14.2
2019-05-25T06:16:18.348Z,14.2
2019-05-25T06:17:30.448Z,14.3
2019-05-25T06:18:42.820Z,14.3
2019-05-25T06:19:54.926Z,14.3
2019-05-25T06:21:07.124Z,14.4
2019-05-25T06:22:19.326Z,14.4
2019-05-25T06:23:31.576Z,14.4
2019-05-25T06:24:43.654Z,14.5
2019-05-25T06:25:55.954Z,14.5
2019-05-25T06:27:09.448Z,14.6
2019-05-25T06:28:20.286Z,14.7
2019-05-25T06:29:32.454Z,14.9
2019-05-25T06:30:49.023Z,15.1
2019-05-25T06:33:09.044Z,15.7
2019-05-25T06:34:21.396Z,15.9
2019-05-25T06:35:33.421Z,16.2
2019-05-25T06:36:45.541Z,16.5
2019-05-25T06:37:57.828Z,16.7
2019-05-25T06:39:09.919Z,16.9
2019-05-25T06:40:22.239Z,17.1
2019-05-25T06:41:34.320Z,17.3
2019-05-25T06:42:46.511Z,17.5
2019-05-25T06:43:58.784Z,17.7
2019-05-25T06:45:11.007Z,17.9
2019-05-25T06:46:23.085Z,18
2019-05-25T06:47:35.356Z,18.1
2019-05-25T06:48:47.572Z,18.2
2019-05-25T06:49:59.750Z,18.3
2019-05-25T06:51:11.844Z,18.5
2019-05-25T06:52:24.166Z,18.5
2019-05-25T06:53:36.279Z,18.3
2019-05-25T06:54:48.582Z,18.3
2019-05-25T06:56:00.721Z,18.2
2019-05-25T06:57:12.813Z,18.1
2019-05-25T06:58:25.009Z,18
2019-05-25T06:59:37.403Z,18.2
2019-05-25T07:00:50.694Z,18.6
2019-05-25T07:02:01.655Z,18.8
2019-05-25T07:03:13.857Z,18.7
2019-05-25T07:04:26.065Z,18.6
2019-05-25T07:05:38.166Z,18.5
2019-05-25T07:06:50.460Z,18.8
2019-05-25T07:08:02.725Z,18.7
2019-05-25T07:09:14.829Z,18.7
2019-05-25T07:10:26.928Z,18.7
2019-05-25T07:11:39.268Z,18.5
2019-05-25T07:12:51.318Z,18.1
2019-05-25T07:14:03.532Z,17.8
2019-05-25T07:15:15.788Z,18.1
2019-05-25T07:16:28.066Z,17.9
2019-05-25T07:17:40.097Z,17.5
2019-05-25T07:18:52.425Z,17.5
2019-05-25T07:20:04.653Z,17.6
2019-05-25T07:21:16.677Z,17.6
2019-05-25T07:22:28.869Z,17.5
2019-05-25T07:23:41.237Z,17.8
2019-05-25T07:24:53.261Z,18
2019-05-25T07:26:05.530Z,18.1
2019-05-25T07:27:17.763Z,18.4
2019-05-25T07:28:29.836Z,18.7
2019-05-25T07:29:42.035Z,18.7
2019-05-25T07:30:54.318Z,18.5
2019-05-25T07:32:06.617Z,18.5
2019-05-25T07:33:18.745Z,18.5
2019-05-25T07:34:30.810Z,18.4
2019-05-25T07:35:43.067Z,18.4
2019-05-25T07:36:55.282Z,18.9
2019-05-25T07:38:07.477Z,19.1
2019-05-25T07:39:19.575Z,19.2
2019-05-25T07:40:31.812Z,19.2
2019-05-25T07:41:44.043Z,19.1
2019-05-25T07:42:56.247Z,19.1
2019-05-25T07:44:08.434Z,19
2019-05-25T07:45:20.622Z,19.1
2019-05-25T07:46:32.719Z,19.3
2019-05-25T07:47:45.009Z,19.5
2019-05-25T07:48:57.268Z,19.6
2019-05-25T07:50:09.393Z,19.5
2019-05-25T07:51:21.605Z,19.4
2019-05-25T07:52:33.784Z,19.4
2019-05-25T07:53:45.963Z,19.3
2019-05-25T07:54:59.498Z,19.4
2019-05-25T07:56:10.368Z,19.5
2019-05-25T07:57:22.456Z,19.6
2019-05-25T07:58:34.664Z,20
2019-05-25T07:59:46.940Z,20.1
2019-05-25T08:00:59.124Z,20.3
2019-05-25T08:02:11.286Z,20.3
2019-05-25T08:03:23.427Z,20.1
2019-05-25T08:04:35.712Z,19.9
2019-05-25T08:05:47.814Z,19.9
2019-05-25T08:07:00.190Z,19.9
2019-05-25T08:08:12.290Z,19.9
2019-05-25T08:09:24.476Z,19.8
2019-05-25T08:10:36.665Z,19.8
2019-05-25T08:11:48.829Z,19.8
2019-05-25T08:13:00.991Z,19.8
2019-05-25T08:14:13.263Z,19.9
2019-05-25T08:15:25.356Z,20.1
2019-05-25T08:16:37.548Z,20.1
2019-05-25T08:17:49.752Z,20.3
2019-05-25T08:19:02.034Z,20.4
2019-05-25T08:20:14.227Z,20.6
2019-05-25T08:21:26.421Z,20.8
2019-05-25T08:22:38.529Z,20.9
2019-05-25T08:23:50.808Z,20.9
2019-05-25T08:25:02.901Z,20.9
2019-05-25T08:26:15.229Z,20.8
2019-05-25T08:27:27.284Z,20.8
2019-05-25T08:28:39.600Z,20.7
2019-05-25T08:29:51.690Z,20.6
2019-05-25T08:31:04.687Z,20.5
2019-05-25T08:32:16.160Z,20.3
2019-05-25T08:33:28.344Z,20.3
2019-05-25T08:34:40.445Z,20.3
2019-05-25T08:35:52.734Z,20.4
2019-05-25T08:37:05.581Z,20.2
2019-05-25T08:38:17.197Z,20.2
2019-05-25T08:39:29.289Z,20.4
2019-05-25T08:40:41.498Z,20.6
2019-05-25T08:41:53.726Z,20.7
2019-05-25T08:43:05.859Z,20.7
2019-05-25T08:44:22.380Z,20.8
2019-05-25T08:45:30.186Z,20.8
2019-05-25T08:46:42.378Z,20.8
2019-05-25T08:47:54.576Z,20.9
2019-05-25T08:49:06.807Z,21.1
2019-05-25T08:50:19.032Z,21.2
2019-05-25T08:51:31.259Z,21.3
2019-05-25T08:52:43.352Z,21.1
2019-05-25T08:53:55.613Z,21
2019-05-25T08:55:07.757Z,21.1
2019-05-25T08:56:20.042Z,21.5
2019-05-25T08:57:32.199Z,21.7
2019-05-25T08:58:44.344Z,21.6
2019-05-25T08:59:56.600Z,21.4
2019-05-25T09:01:08.810Z,21.3
2019-05-25T09:02:21.074Z,21.6
2019-05-25T09:03:33.115Z,21.7
2019-05-25T09:04:45.392Z,21.8
2019-05-25T09:05:57.559Z,21.9
2019-05-25T09:07:09.656Z,22
2019-05-25T09:08:21.946Z,22.2
2019-05-25T09:09:35.418Z,22.3
2019-05-25T09:10:49.152Z,22.3
2019-05-25T09:11:58.539Z,22.5
2019-05-25T09:13:10.630Z,22.4
2019-05-25T09:14:22.839Z,22.6
2019-05-25T09:15:35.223Z,22.8
2019-05-25T09:16:47.393Z,22.9
2019-05-25T09:17:59.405Z,22.9
2019-05-25T09:19:11.712Z,22.8
2019-05-25T09:20:23.970Z,22.9
2019-05-25T09:21:36.125Z,23
2019-05-25T09:22:50.693Z,23.2
2019-05-25T09:24:00.512Z,23.3
2019-05-25T09:25:12.574Z,23.5
2019-05-25T09:26:24.853Z,23.7
2019-05-25T09:27:37.048Z,24.1
2019-05-25T09:28:49.263Z,24.3
2019-05-25T09:30:01.339Z,23.9
2019-05-25T09:31:13.717Z,23.9
2019-05-25T09:32:25.980Z,23.8
2019-05-25T09:33:38.020Z,23.7
2019-05-25T09:34:50.136Z,23.8
2019-05-25T09:36:02.401Z,24
2019-05-25T09:37:14.589Z,24.2
2019-05-25T09:38:26.736Z,24.4
2019-05-25T09:39:38.986Z,24.6
2019-05-25T09:40:51.231Z,24.5
2019-05-25T09:42:03.288Z,24.6
2019-05-25T09:43:15.472Z,24.6
2019-05-25T09:44:27.760Z,25
2019-05-25T09:45:39.860Z,25.1
2019-05-25T09:46:52.138Z,25.2
2019-05-25T09:48:04.517Z,25.1
2019-05-25T09:49:16.474Z,25
2019-05-25T09:50:28.725Z,25
2019-05-25T09:51:40.857Z,25.1
2019-05-25T09:52:53.111Z,25.3
2019-05-25T09:54:05.225Z,25.5
2019-05-25T09:55:17.506Z,25.4
2019-05-25T09:56:29.839Z,25.5
2019-05-25T09:57:41.812Z,25.5
2019-05-25T09:58:54.091Z,25.7
2019-05-25T10:00:06.344Z,25.7
2019-05-25T10:01:18.461Z,25.3
2019-05-25T10:02:30.696Z,25.3
2019-05-25T10:03:42.865Z,25.2
2019-05-25T10:04:54.978Z,25.2
2019-05-25T10:06:07.230Z,25.3
2019-05-25T10:07:19.453Z,25.1
2019-05-25T10:08:31.638Z,25.1
2019-05-25T10:09:43.852Z,24.9
2019-05-25T10:10:55.983Z,24.2
2019-05-25T10:12:08.238Z,24
2019-05-25T10:13:20.333Z,24.3
2019-05-25T10:14:32.616Z,24.5
2019-05-25T10:15:44.712Z,24.5
2019-05-25T10:16:57.027Z,24.5
2019-05-25T10:18:09.221Z,24.3
2019-05-25T10:19:21.338Z,24.2
2019-05-25T10:20:33.597Z,24.3
2019-05-25T10:21:45.680Z,24.4
2019-05-25T10:22:58.011Z,24.5
2019-05-25T10:24:10.193Z,24.4
2019-05-25T10:25:22.274Z,24.4
2019-05-25T10:26:34.555Z,24.5
2019-05-25T10:27:46.659Z,24.8
2019-05-25T10:28:58.845Z,25
2019-05-25T10:30:11.065Z,25.1
2019-05-25T10:31:23.345Z,25.2
2019-05-25T10:32:35.546Z,25.4
2019-05-25T10:33:47.652Z,25.5
2019-05-25T10:34:59.825Z,25.6
2019-05-25T10:36:12.205Z,25.8
2019-05-25T10:37:24.202Z,26.1
2019-05-25T10:38:36.573Z,26.4
2019-05-25T10:39:48.604Z,26.4
2019-05-25T10:41:00.788Z,26.1
2019-05-25T10:42:13.057Z,26.1
2019-05-25T10:43:25.177Z,26.1
2019-05-25T10:44:37.482Z,26.3
2019-05-25T10:45:52.892Z,26.4
2019-05-25T10:47:01.764Z,26.4
2019-05-25T10:48:13.974Z,26.4
2019-05-25T10:49:26.174Z,26.3
2019-05-25T10:50:38.510Z,26.3
2019-05-25T10:51:50.579Z,26.3
2019-05-25T10:53:02.817Z,26
2019-05-25T10:54:14.927Z,25.7
2019-05-25T10:55:29.474Z,25.6
2019-05-25T10:56:39.426Z,25.9
2019-05-25T10:57:51.604Z,26.5
2019-05-25T10:59:03.710Z,26.9
2019-05-25T11:00:16.078Z,27.1
2019-05-25T11:01:28.098Z,27.2
2019-05-25T11:02:40.734Z,27.2
2019-05-25T11:03:52.488Z,27.1
2019-05-25T11:05:06.062Z,27.1
2019-05-25T11:06:16.972Z,26.6
2019-05-25T11:07:29.080Z,26.4
2019-05-25T11:08:41.372Z,26.3
2019-05-25T11:09:53.465Z,26.7
2019-05-25T11:11:05.661Z,26.9
2019-05-25T11:12:17.859Z,27.1
2019-05-25T11:13:30.103Z,27.3
2019-05-25T11:14:42.252Z,27.2
2019-05-25T11:15:54.524Z,27.1
2019-05-25T11:17:06.653Z,27
2019-05-25T11:18:18.917Z,26.8
2019-05-25T11:19:31.023Z,26.9
2019-05-25T11:20:43.306Z,27.1
2019-05-25T11:21:55.598Z,27.4
2019-05-25T11:23:07.598Z,27.4
2019-05-25T11:24:19.977Z,27.5
2019-05-25T11:25:31.992Z,27.8
2019-05-25T11:26:44.371Z,28.1
2019-05-25T11:27:56.382Z,28.4
2019-05-25T11:29:08.585Z,28.5
2019-05-25T11:30:20.788Z,28.6
2019-05-25T11:31:33.170Z,28.7
2019-05-25T11:32:45.275Z,28.7
2019-05-25T11:33:57.441Z,28.4
2019-05-25T11:35:09.562Z,28.2
2019-05-25T11:36:21.744Z,28
2019-05-25T11:37:33.947Z,27.9
2019-05-25T11:38:46.127Z,27.5
2019-05-25T11:39:58.408Z,27.3
2019-05-25T11:41:10.517Z,26.7
2019-05-25T11:42:22.787Z,26.3
2019-05-25T11:43:34.975Z,26.2
2019-05-25T11:44:47.272Z,26
2019-05-25T11:45:59.299Z,25.9
2019-05-25T11:47:11.485Z,25.7
2019-05-25T11:48:23.685Z,25.3
2019-05-25T11:49:35.974Z,25.2
2019-05-25T11:50:48.079Z,25.5
2019-05-25T11:52:00.723Z,25.6
2019-05-25T11:53:12.559Z,25.7
2019-05-25T11:54:24.685Z,25.7
2019-05-25T11:55:36.969Z,25.6
2019-05-25T11:56:49.134Z,25.6
2019-05-25T11:58:01.234Z,25.5
2019-05-25T11:59:13.441Z,25.1
2019-05-25T12:00:25.737Z,24.9
2019-05-25T12:01:37.809Z,24.9
2019-05-25T12:02:51.591Z,24.9
2019-05-25T12:04:02.197Z,24.8
2019-05-25T12:05:14.397Z,24.6
2019-05-25T12:06:26.581Z,24.3
2019-05-25T12:07:38.788Z,23.9
2019-05-25T12:08:51.121Z,23.8
2019-05-25T12:10:03.235Z,23.7
2019-05-25T12:11:15.366Z,23.8
2019-05-25T12:12:27.641Z,23.8
2019-05-25T12:13:39.752Z,23.7
2019-05-25T12:14:52.043Z,23.7
2019-05-25T12:16:04.148Z,23.7
2019-05-25T12:17:16.349Z,23.5
2019-05-25T12:18:28.603Z,23.5
2019-05-25T12:19:40.916Z,23.4
2019-05-25T12:20:53.072Z,23.3
2019-05-25T12:22:05.166Z,23
2019-05-25T12:23:17.385Z,23
2019-05-25T12:24:29.694Z,23.1
2019-05-25T12:25:41.670Z,23.2
2019-05-25T12:26:53.887Z,23.2
2019-05-25T12:28:06.171Z,23.2
2019-05-25T12:29:18.372Z,23.1
2019-05-25T12:30:30.572Z,23.1
2019-05-25T12:31:42.725Z,23
2019-05-25T12:32:54.930Z,23
2019-05-25T12:34:07.091Z,23
2019-05-25T12:35:19.218Z,23
2019-05-25T12:36:31.411Z,22.9
2019-05-25T12:37:43.611Z,22.6
2019-05-25T12:38:55.892Z,22.5
2019-05-25T12:40:08.015Z,22.5
2019-05-25T12:41:22.560Z,22.5
2019-05-25T12:42:36.556Z,22.6
2019-05-25T12:43:44.580Z,22.6
2019-05-25T12:44:56.963Z,22.6
2019-05-25T12:46:09.053Z,22.6
2019-05-25T12:47:21.343Z,22.6
2019-05-25T12:48:33.498Z,22.6
2019-05-25T12:49:45.577Z,22.6
2019-05-25T12:50:57.851Z,22.6
2019-05-25T12:52:09.957Z,22.6
2019-05-25T12:53:22.431Z,22.8
2019-05-25T12:54:34.440Z,22.9
2019-05-25T12:55:46.585Z,23
2019-05-25T12:56:58.901Z,23.1
2019-05-25T12:58:10.916Z,23.1
2019-05-25T12:59:23.110Z,23.2
2019-05-25T13:00:35.305Z,23
2019-05-25T13:01:47.574Z,22.7
2019-05-25T13:02:59.794Z,22.7
2019-05-25T13:04:11.891Z,22.6
2019-05-25T13:05:24.118Z,22.8
2019-05-25T13:06:36.345Z,22.8
2019-05-25T13:07:48.478Z,22.8
2019-05-25T13:09:00.793Z,22.8
2019-05-25T13:10:13.037Z,22.8
2019-05-25T13:11:25.062Z,22.7
2019-05-25T13:12:37.374Z,22.5
2019-05-25T13:13:49.469Z,22.4
2019-05-25T13:15:01.743Z,22.5
2019-05-25T13:16:13.884Z,22.4
2019-05-25T13:17:26.133Z,22.1
2019-05-25T13:18:38.242Z,21.7
2019-05-25T13:19:50.438Z,21.5
2019-05-25T13:21:02.723Z,21.6
2019-05-25T13:22:14.834Z,21.9
2019-05-25T13:23:27.014Z,22.1
2019-05-25T13:24:39.403Z,22.3
2019-05-25T13:25:51.402Z,22.4
2019-05-25T13:27:03.664Z,22.4
2019-05-25T13:28:15.893Z,22.1
2019-05-25T13:29:27.993Z,22
2019-05-25T13:30:40.226Z,22
2019-05-25T13:31:52.401Z,22
2019-05-25T13:33:04.805Z,22
2019-05-25T13:34:16.773Z,22
2019-05-25T13:35:28.954Z,22.1
2019-05-25T13:36:41.222Z,22.2
2019-05-25T13:37:53.441Z,22.3
2019-05-25T13:39:05.632Z,22.4
2019-05-25T13:40:17.751Z,22.4
2019-05-25T13:41:30.027Z,22.4
2019-05-25T13:42:42.142Z,22.4
2019-05-25T13:43:54.448Z,22.4
2019-05-25T13:45:06.737Z,22.3
2019-05-25T13:46:18.824Z,22.2
2019-05-25T13:47:30.994Z,22.2
2019-05-25T13:48:43.182Z,22.2
2019-05-25T13:49:55.305Z,22.3
2019-05-25T13:51:07.502Z,22.4
2019-05-25T13:52:19.716Z,22.5
2019-05-25T13:53:32.021Z,22.5
2019-05-25T13:54:44.116Z,22.5
2019-05-25T13:55:56.470Z,22.4
2019-05-25T13:57:08.570Z,22.4
2019-05-25T13:58:20.672Z,22.3
2019-05-25T13:59:32.894Z,22.4
2019-05-25T14:00:45.247Z,22.4
2019-05-25T14:01:57.269Z,22.5
2019-05-25T14:03:09.457Z,22.5
2019-05-25T14:04:21.728Z,22.5
2019-05-25T14:05:33.849Z,22.6
2019-05-25T14:06:46.117Z,22.6
2019-05-25T14:07:58.245Z,22.6
2019-05-25T14:09:10.583Z,22.5
2019-05-25T14:10:23.219Z,22.6
2019-05-25T14:11:34.872Z,22.6
2019-05-25T14:12:47.027Z,22.6
2019-05-25T14:13:59.220Z,22.6
2019-05-25T14:15:11.543Z,22.5
2019-05-25T14:16:23.604Z,22.4
2019-05-25T14:17:36.034Z,22.2
2019-05-25T14:18:47.997Z,22.2
2019-05-25T14:20:00.293Z,22.2
2019-05-25T14:21:12.480Z,22.3
2019-05-25T14:22:24.743Z,22.4
2019-05-25T14:23:36.781Z,22.4
2019-05-25T14:24:49.069Z,22.4
2019-05-25T14:26:01.189Z,22.4
2019-05-25T14:27:13.359Z,22.4
2019-05-25T14:28:25.572Z,22.3
2019-05-25T14:29:37.855Z,22.3
2019-05-25T14:30:49.946Z,22.3
2019-05-25T14:32:02.225Z,22.3
2019-05-25T14:33:14.442Z,22.4
2019-05-25T14:34:26.634Z,22.4
2019-05-25T14:35:38.733Z,22.4
2019-05-25T14:36:51.072Z,22.3
2019-05-25T14:38:03.129Z,22.4
2019-05-25T14:39:15.315Z,22.4
2019-05-25T14:40:27.603Z,22.4
2019-05-25T14:41:39.724Z,22.4
2019-05-25T14:42:51.950Z,22.4
2019-05-25T14:44:04.195Z,22.4
2019-05-25T14:45:16.388Z,22.3
2019-05-25T14:46:28.509Z,22.3
2019-05-25T14:47:40.704Z,22.3
2019-05-25T14:48:52.875Z,22.3
2019-05-25T14:50:05.071Z,22.3
2019-05-25T14:51:17.342Z,22.1
2019-05-25T14:52:29.535Z,22.1
2019-05-25T14:53:41.749Z,22.1
2019-05-25T14:54:53.896Z,22.1
2019-05-25T14:56:06.228Z,22.2
2019-05-25T14:57:18.440Z,22.4
2019-05-25T14:58:30.445Z,22.4
2019-05-25T14:59:42.635Z,22.2
2019-05-25T15:00:54.831Z,22.2
2019-05-25T15:02:07.134Z,22.2
2019-05-25T15:03:19.224Z,22.2
2019-05-25T15:04:31.426Z,22.2
2019-05-25T15:05:43.757Z,22.2
2019-05-25T15:06:55.813Z,22.2
2019-05-25T15:08:08.005Z,22.2
2019-05-25T15:09:20.310Z,22.1
2019-05-25T15:10:32.452Z,22.2
2019-05-25T15:11:44.588Z,22.1
2019-05-25T15:12:56.863Z,22
2019-05-25T15:14:08.975Z,21.9
2019-05-25T15:15:21.206Z,22
2019-05-25T15:16:33.411Z,22.1
2019-05-25T15:17:45.561Z,22.2
2019-05-25T15:18:57.767Z,22.2
2019-05-25T15:20:10.046Z,22.1
2019-05-25T15:21:22.312Z,22
2019-05-25T15:22:34.345Z,22
2019-05-25T15:23:46.530Z,22
2019-05-25T15:25:00.762Z,22
2019-05-25T15:26:11.013Z,21.9
2019-05-25T15:27:23.223Z,21.9
2019-05-25T15:28:35.318Z,21.9
2019-05-25T15:29:47.509Z,21.9
2019-05-25T15:30:59.705Z,21.8
2019-05-25T15:32:11.985Z,21.7
2019-05-25T15:33:24.207Z,21.7
2019-05-25T15:34:36.411Z,21.8
2019-05-25T15:35:48.495Z,21.8
2019-05-25T15:37:00.677Z,21.9
2019-05-25T15:38:12.886Z,22
2019-05-25T15:39:25.168Z,21.9
2019-05-25T15:40:37.412Z,21.8
2019-05-25T15:41:49.475Z,21.8
2019-05-25T15:43:01.824Z,21.7
2019-05-25T15:44:13.976Z,21.7
2019-05-25T15:45:26.170Z,21.7
2019-05-25T15:46:38.327Z,21.7
2019-05-25T15:47:50.497Z,21.5
2019-05-25T15:49:02.738Z,21.5
2019-05-25T15:50:14.909Z,21.5
2019-05-25T15:51:27.016Z,21.5
2019-05-25T15:52:39.228Z,21.5
2019-05-25T15:53:51.412Z,21.4
2019-05-25T15:55:03.615Z,21.4
2019-05-25T15:56:15.800Z,21.5
2019-05-25T15:57:28.093Z,21.5
2019-05-25T15:58:40.197Z,21.5
2019-05-25T15:59:52.494Z,21.5
2019-05-25T16:01:04.673Z,21.5
2019-05-25T16:02:16.786Z,21.5
2019-05-25T16:03:30.616Z,21.5
2019-05-25T16:04:41.253Z,21.5
2019-05-25T16:05:53.366Z,21.5
2019-05-25T16:07:05.641Z,21.4
2019-05-25T16:08:17.838Z,21.4
2019-05-25T16:09:30.134Z,21.4